createdAt,value
2018-10-05T00:01:57.640Z,12.17
2018-10-05T00:04:24.878Z,12.40
2018-10-05T00:06:52.143Z,12.63
2018-10-05T00:09:19.399Z,12.73
2018-10-05T00:11:46.664Z,10.83
2018-10-05T00:14:13.895Z,12.00
2018-10-05T00:16:41.116Z,13.20
2018-10-05T00:19:08.347Z,13.00
2018-10-05T00:21:35.592Z,11.10
2018-10-05T00:24:02.895Z,13.17
2018-10-05T00:26:30.307Z,15.53
2018-10-05T00:28:57.586Z,13.17
2018-10-05T00:31:24.832Z,11.57
2018-10-05T00:33:52.085Z,11.73
2018-10-05T00:36:19.328Z,14.07
2018-10-05T00:38:46.560Z,12.43
2018-10-05T00:41:13.817Z,11.87
2018-10-05T00:43:41.051Z,11.33
2018-10-05T00:46:08.331Z,13.00
2018-10-05T00:48:35.559Z,12.17
2018-10-05T00:51:02.848Z,11.07
2018-10-05T00:53:30.202Z,13.37
2018-10-05T00:55:57.393Z,10.80
2018-10-05T00:58:24.628Z,14.93
2018-10-05T01:00:51.887Z,10.43
2018-10-05T01:03:19.195Z,11.57
2018-10-05T01:05:46.504Z,11.57
2018-10-05T01:08:13.759Z,10.93
2018-10-05T01:10:41.000Z,13.83
2018-10-05T01:13:08.258Z,11.53
2018-10-05T01:15:35.519Z,12.83
2018-10-05T01:18:02.774Z,11.87
2018-10-05T01:20:30.027Z,9.47
2018-10-05T01:22:57.279Z,11.07
2018-10-05T01:25:24.524Z,12.43
2018-10-05T01:27:51.740Z,9.73
2018-10-05T01:30:18.966Z,12.03
2018-10-05T01:32:46.174Z,12.50
2018-10-05T01:35:13.772Z,11.67
2018-10-05T01:37:41.022Z,11.43
2018-10-05T01:40:08.317Z,10.73
2018-10-05T01:42:35.535Z,11.70
2018-10-05T01:45:02.777Z,10.53
2018-10-05T01:47:30.047Z,10.63
2018-10-05T01:49:57.266Z,10.23
2018-10-05T01:52:24.594Z,12.60
2018-10-05T01:54:51.852Z,9.53
2018-10-05T01:57:19.059Z,10.57
2018-10-05T01:59:46.299Z,10.03
2018-10-05T02:02:13.552Z,12.80
2018-10-05T02:04:40.767Z,11.10
2018-10-05T02:07:08.047Z,10.03
2018-10-05T02:09:35.291Z,10.87
2018-10-05T02:12:02.571Z,10.43
2018-10-05T02:14:29.809Z,10.17
2018-10-05T02:16:57.098Z,10.53
2018-10-05T02:19:24.399Z,14.30
2018-10-05T02:21:51.634Z,12.47
2018-10-05T02:24:18.869Z,9.93
2018-10-05T02:26:46.094Z,10.37
2018-10-05T02:29:13.372Z,11.33
2018-10-05T02:31:40.604Z,9.77
2018-10-05T02:34:07.887Z,9.37
2018-10-05T02:36:35.143Z,10.70
2018-10-05T02:39:02.467Z,10.20
2018-10-05T02:41:29.754Z,9.23
2018-10-05T02:43:56.951Z,10.10
2018-10-05T02:46:24.244Z,9.93
2018-10-05T02:48:51.510Z,8.37
2018-10-05T02:51:18.780Z,8.20
2018-10-05T02:53:46.028Z,7.53
2018-10-05T02:56:13.239Z,10.10
2018-10-05T02:58:40.636Z,8.97
2018-10-05T03:01:19.548Z,10.47
2018-10-05T03:03:46.889Z,8.37
2018-10-05T03:06:14.497Z,7.77
2018-10-05T03:08:42.091Z,9.53
2018-10-05T03:11:09.724Z,9.43
2018-10-05T03:13:37.047Z,9.00
2018-10-05T03:16:04.363Z,7.73
2018-10-05T03:18:31.679Z,10.20
2018-10-05T03:20:58.936Z,9.50
2018-10-05T03:23:26.192Z,10.17
2018-10-05T03:25:53.475Z,9.77
2018-10-05T03:28:20.719Z,9.03
2018-10-05T03:30:47.991Z,10.97
2018-10-05T03:33:15.235Z,9.67
2018-10-05T03:35:42.491Z,10.67
2018-10-05T03:38:09.750Z,7.80
2018-10-05T03:40:36.994Z,11.23
2018-10-05T03:43:04.245Z,8.80
2018-10-05T03:45:31.467Z,8.67
2018-10-05T03:47:58.709Z,8.63
2018-10-05T03:50:25.953Z,11.47
2018-10-05T03:52:53.192Z,10.83
2018-10-05T03:55:20.471Z,9.50
2018-10-05T03:57:47.727Z,8.73
2018-10-05T04:00:14.973Z,10.50
2018-10-05T04:02:42.272Z,10.17
2018-10-05T04:05:09.527Z,11.43
2018-10-05T04:07:36.751Z,8.07
2018-10-05T04:10:04.005Z,9.00
2018-10-05T04:12:31.556Z,8.93
2018-10-05T04:14:58.776Z,8.53
2018-10-05T04:17:26.045Z,10.00
2018-10-05T04:19:53.278Z,9.80
2018-10-05T04:22:25.131Z,8.37
2018-10-05T04:24:52.415Z,10.53
2018-10-05T04:27:19.758Z,9.27
2018-10-05T04:29:46.952Z,8.77
2018-10-05T04:32:14.206Z,9.23
2018-10-05T04:34:41.458Z,11.20
2018-10-05T04:37:08.704Z,7.97
2018-10-05T04:39:35.932Z,10.77
2018-10-05T04:42:03.164Z,8.97
2018-10-05T04:44:30.392Z,8.63
2018-10-05T04:46:57.629Z,10.50
2018-10-05T04:49:24.966Z,9.97
2018-10-05T04:51:52.400Z,8.67
2018-10-05T04:54:19.627Z,8.07
2018-10-05T04:56:46.926Z,7.77
2018-10-05T04:59:14.092Z,8.13
2018-10-05T05:01:41.325Z,7.57
2018-10-05T05:04:08.574Z,9.57
2018-10-05T05:06:35.942Z,9.47
2018-10-05T05:09:04.351Z,7.13
2018-10-05T05:11:31.565Z,7.90
2018-10-05T05:13:58.784Z,9.83
2018-10-05T05:16:26.056Z,11.27
2018-10-05T05:18:53.298Z,9.17
2018-10-05T05:21:20.544Z,8.53
2018-10-05T05:23:47.769Z,8.47
2018-10-05T05:26:15.004Z,8.63
2018-10-05T05:28:42.255Z,7.93
2018-10-05T05:31:09.499Z,10.93
2018-10-05T05:33:36.810Z,7.80
2018-10-05T05:36:03.954Z,8.27
2018-10-05T05:38:31.232Z,9.27
2018-10-05T05:40:58.498Z,8.10
2018-10-05T05:43:25.712Z,9.10
2018-10-05T05:45:52.947Z,9.50
2018-10-05T05:48:20.190Z,8.47
2018-10-05T05:50:47.423Z,7.93
2018-10-05T05:53:14.649Z,8.90
2018-10-05T05:55:41.972Z,8.07
2018-10-05T05:58:09.223Z,11.47
2018-10-05T06:00:36.455Z,10.13
2018-10-05T06:03:03.687Z,10.80
2018-10-05T06:05:30.900Z,9.67
2018-10-05T06:07:58.201Z,7.63
2018-10-05T06:10:25.418Z,11.97
2018-10-05T06:12:52.639Z,9.87
2018-10-05T06:15:19.885Z,9.93
2018-10-05T06:17:47.095Z,7.90
2018-10-05T06:20:14.332Z,8.17
2018-10-05T06:22:41.934Z,10.27
2018-10-05T06:25:09.189Z,9.07
2018-10-05T06:27:36.396Z,7.10
2018-10-05T06:30:04.077Z,9.53
2018-10-05T06:32:31.319Z,9.47
2018-10-05T06:34:58.556Z,9.93
2018-10-05T06:37:27.319Z,11.27
2018-10-05T06:39:54.552Z,11.93
2018-10-05T06:42:21.841Z,8.40
2018-10-05T06:44:49.015Z,11.57
2018-10-05T06:47:16.240Z,13.10
2018-10-05T06:49:43.465Z,12.40
2018-10-05T06:52:10.695Z,9.87
2018-10-05T06:54:37.911Z,14.03
2018-10-05T06:57:05.153Z,13.70
2018-10-05T06:59:32.404Z,16.30
2018-10-05T07:01:59.657Z,15.20
2018-10-05T07:04:26.868Z,15.57
2018-10-05T07:06:54.094Z,12.17
2018-10-05T07:09:21.352Z,15.00
2018-10-05T07:11:48.592Z,10.63
2018-10-05T07:14:15.816Z,8.90
2018-10-05T07:16:43.071Z,14.90
2018-10-05T07:19:10.287Z,10.00
2018-10-05T07:21:37.529Z,16.60
2018-10-05T07:24:04.787Z,8.80
2018-10-05T07:26:32.069Z,13.47
2018-10-05T07:28:59.416Z,12.40
2018-10-05T07:31:26.643Z,17.67
2018-10-05T07:33:53.875Z,10.50
2018-10-05T07:36:21.173Z,14.78
2018-10-05T07:38:48.429Z,18.70
2018-10-05T07:41:15.666Z,12.30
2018-10-05T07:43:42.883Z,8.98
2018-10-05T07:46:10.151Z,11.08
2018-10-05T07:48:37.391Z,12.43
2018-10-05T07:51:04.975Z,10.90
2018-10-05T07:53:32.225Z,8.70
2018-10-05T07:55:59.543Z,14.47
2018-10-05T07:58:26.823Z,10.05
2018-10-05T08:00:54.052Z,11.18
2018-10-05T08:03:21.299Z,12.85
2018-10-05T08:05:48.600Z,11.00
2018-10-05T08:08:15.841Z,11.53
2018-10-05T08:10:43.104Z,14.95
2018-10-05T08:13:10.359Z,17.55
2018-10-05T08:15:37.611Z,16.27
2018-10-05T08:18:04.993Z,17.05
2018-10-05T08:20:32.263Z,9.85
2018-10-05T08:22:59.499Z,17.07
2018-10-05T08:25:26.732Z,14.50
2018-10-05T08:27:54.056Z,8.73
2018-10-05T08:30:21.260Z,11.95
2018-10-05T08:32:48.524Z,9.58
2018-10-05T08:35:15.849Z,11.88
2018-10-05T08:37:43.108Z,10.10
2018-10-05T08:40:10.942Z,11.43
2018-10-05T08:42:38.149Z,8.43
2018-10-05T08:45:05.555Z,10.63
2018-10-05T08:47:32.833Z,10.80
2018-10-05T08:50:00.472Z,10.93
2018-10-05T08:52:27.732Z,10.98
2018-10-05T08:54:55.010Z,9.45
2018-10-05T08:57:22.266Z,14.85
2018-10-05T08:59:49.574Z,13.53
2018-10-05T09:02:16.896Z,9.75
2018-10-05T09:04:44.144Z,10.03
2018-10-05T09:07:11.431Z,12.68
2018-10-05T09:09:38.684Z,10.48
2018-10-05T09:12:05.944Z,10.78
2018-10-05T09:14:33.211Z,12.33
2018-10-05T09:17:00.474Z,12.78
2018-10-05T09:19:27.824Z,9.58
2018-10-05T09:21:55.068Z,11.33
2018-10-05T09:24:22.358Z,10.65
2018-10-05T09:26:49.887Z,9.33
2018-10-05T09:29:17.166Z,10.23
2018-10-05T09:31:44.424Z,9.03
2018-10-05T09:34:11.671Z,8.15
2018-10-05T09:36:40.540Z,7.62
2018-10-05T09:39:08.256Z,7.15
2018-10-05T09:41:36.974Z,7.03
2018-10-05T09:44:04.227Z,8.98
2018-10-05T09:46:31.472Z,7.45
2018-10-05T09:48:59.044Z,6.03
2018-10-05T09:51:26.291Z,6.83
2018-10-05T09:53:53.552Z,8.43
2018-10-05T09:56:20.808Z,7.42
2018-10-05T09:58:48.072Z,5.60
2018-10-05T10:01:21.145Z,5.55
2018-10-05T10:03:48.422Z,7.78
2018-10-05T10:06:15.679Z,5.58
2018-10-05T10:08:42.935Z,6.25
2018-10-05T10:11:10.192Z,6.62
2018-10-05T10:13:37.499Z,4.97
2018-10-05T10:16:04.743Z,5.17
2018-10-05T10:18:32.004Z,4.97
2018-10-05T10:20:59.278Z,4.08
2018-10-05T10:23:26.531Z,5.53
2018-10-05T10:25:53.763Z,5.87
2018-10-05T10:28:21.096Z,4.45
2018-10-05T10:30:48.236Z,7.03
2018-10-05T10:33:15.512Z,6.15
2018-10-05T10:35:42.734Z,4.42
2018-10-05T10:38:10.004Z,4.65
2018-10-05T10:40:37.275Z,5.15
2018-10-05T10:43:04.776Z,5.72
2018-10-05T10:45:32.025Z,4.60
2018-10-05T10:47:59.239Z,7.58
2018-10-05T10:50:26.491Z,4.67
2018-10-05T10:52:53.714Z,4.58
2018-10-05T10:55:20.953Z,4.37
2018-10-05T10:57:48.171Z,4.75
2018-10-05T11:00:15.435Z,3.37
2018-10-05T11:02:42.654Z,5.12
2018-10-05T11:05:09.906Z,4.35
2018-10-05T11:07:37.155Z,5.03
2018-10-05T11:10:04.682Z,4.87
2018-10-05T11:12:31.971Z,5.60
2018-10-05T11:14:59.212Z,3.35
2018-10-05T11:17:26.491Z,9.33
2018-10-05T11:19:53.790Z,4.20
2018-10-05T11:22:21.035Z,5.87
2018-10-05T11:24:48.292Z,4.37
2018-10-05T11:27:15.524Z,4.22
2018-10-05T11:29:42.837Z,3.87
2018-10-05T11:32:10.027Z,3.35
2018-10-05T11:34:37.311Z,5.55
2018-10-05T11:37:04.812Z,6.53
2018-10-05T11:39:32.113Z,4.30
2018-10-05T11:41:59.354Z,5.35
2018-10-05T11:44:26.679Z,5.05
2018-10-05T11:46:53.928Z,2.87
2018-10-05T11:49:21.252Z,5.78
2018-10-05T11:51:48.624Z,4.37
2018-10-05T11:54:15.835Z,5.35
2018-10-05T11:56:43.151Z,6.55
2018-10-05T11:59:10.428Z,4.47
2018-10-05T12:01:37.733Z,5.78
2018-10-05T12:04:05.005Z,4.85
2018-10-05T12:06:32.551Z,5.92
2018-10-05T12:08:59.888Z,4.03
2018-10-05T12:11:27.181Z,6.22
2018-10-05T12:13:54.496Z,6.25
2018-10-05T12:16:21.828Z,5.17
2018-10-05T12:18:49.140Z,3.52
2018-10-05T12:21:16.478Z,2.80
2018-10-05T12:23:43.787Z,3.20
2018-10-05T12:26:11.047Z,3.17
2018-10-05T12:28:38.316Z,4.15
2018-10-05T12:31:05.618Z,2.90
2018-10-05T12:33:32.938Z,3.12
2018-10-05T12:36:00.164Z,2.42
2018-10-05T12:38:27.432Z,3.05
2018-10-05T12:40:54.683Z,2.12
2018-10-05T12:43:21.936Z,3.15
2018-10-05T12:45:49.273Z,2.12
2018-10-05T12:48:16.543Z,1.80
2018-10-05T12:50:43.812Z,1.80
2018-10-05T12:53:11.087Z,2.42
2018-10-05T12:55:38.390Z,2.02
2018-10-05T12:58:05.763Z,3.40
2018-10-05T13:00:33.071Z,2.77
2018-10-05T13:03:00.366Z,3.58
2018-10-05T13:05:27.699Z,2.70
2018-10-05T13:07:54.948Z,2.75
2018-10-05T13:10:22.320Z,2.75
2018-10-05T13:12:51.900Z,1.75
2018-10-05T13:15:19.232Z,2.40
2018-10-05T13:17:46.540Z,2.12
2018-10-05T13:20:13.830Z,3.72
2018-10-05T13:22:41.098Z,4.35
2018-10-05T13:25:08.389Z,2.58
2018-10-05T13:27:35.663Z,2.58
2018-10-05T13:30:03.132Z,2.98
2018-10-05T13:32:30.380Z,1.65
2018-10-05T13:34:58.041Z,1.87
2018-10-05T13:37:25.500Z,2.15
2018-10-05T13:39:52.708Z,1.52
2018-10-05T13:42:20.034Z,3.20
2018-10-05T13:44:47.264Z,2.40
2018-10-05T13:47:14.584Z,2.12
2018-10-05T13:49:41.816Z,1.72
2018-10-05T13:52:09.084Z,3.05
2018-10-05T13:54:36.410Z,4.80
2018-10-05T13:57:03.722Z,3.10
2018-10-05T13:59:30.936Z,2.33
2018-10-05T14:01:58.171Z,1.95
2018-10-05T14:04:25.427Z,2.22
2018-10-05T14:06:53.779Z,2.35
2018-10-05T14:09:21.022Z,2.55
2018-10-05T14:11:48.285Z,2.72
2018-10-05T14:14:15.511Z,2.52
2018-10-05T14:16:42.833Z,1.98
2018-10-05T14:19:10.065Z,3.95
2018-10-05T14:21:37.371Z,3.52
2018-10-05T14:24:04.616Z,2.87
2018-10-05T14:26:31.895Z,2.33
2018-10-05T14:28:59.293Z,2.05
2018-10-05T14:31:26.581Z,2.65
2018-10-05T14:33:53.850Z,3.08
2018-10-05T14:36:21.194Z,3.90
2018-10-05T14:38:48.602Z,1.95
2018-10-05T14:41:15.851Z,2.80
2018-10-05T14:43:43.093Z,2.65
2018-10-05T14:46:10.395Z,2.83
2018-10-05T14:48:37.705Z,2.83
2018-10-05T14:51:05.227Z,3.45
2018-10-05T14:53:32.472Z,6.12
2018-10-05T14:56:01.867Z,3.45
2018-10-05T14:58:29.109Z,4.15
2018-10-05T15:00:56.399Z,2.67
2018-10-05T15:03:23.622Z,2.90
2018-10-05T15:05:50.893Z,3.65
2018-10-05T15:08:18.144Z,3.52
2018-10-05T15:10:47.400Z,2.60
2018-10-05T15:13:14.670Z,2.47
2018-10-05T15:15:41.881Z,2.27
2018-10-05T15:18:09.152Z,3.08
2018-10-05T15:20:36.369Z,3.22
2018-10-05T15:23:03.603Z,2.62
2018-10-05T15:25:30.828Z,2.85
2018-10-05T15:27:58.085Z,3.15
2018-10-05T15:30:26.651Z,2.33
2018-10-05T15:32:55.241Z,4.33
2018-10-05T15:35:22.409Z,3.92
2018-10-05T15:37:49.638Z,2.77
2018-10-05T15:40:16.927Z,4.10
2018-10-05T15:42:44.182Z,2.52
2018-10-05T15:45:11.402Z,2.22
2018-10-05T15:47:40.707Z,3.87
2018-10-05T15:50:07.943Z,3.65
2018-10-05T15:52:35.239Z,4.22
2018-10-05T15:55:02.581Z,5.00
2018-10-05T15:57:29.820Z,2.80
2018-10-05T15:59:57.766Z,5.17
2018-10-05T16:02:25.051Z,3.55
2018-10-05T16:04:52.509Z,5.05
2018-10-05T16:07:19.759Z,4.25
2018-10-05T16:09:46.991Z,5.35
2018-10-05T16:12:14.518Z,4.62
2018-10-05T16:14:41.715Z,3.20
2018-10-05T16:17:08.955Z,4.87
2018-10-05T16:19:36.847Z,5.22
2018-10-05T16:22:04.226Z,4.80
2018-10-05T16:24:34.560Z,7.25
2018-10-05T16:27:01.841Z,7.60
2018-10-05T16:29:29.098Z,4.70
2018-10-05T16:31:56.403Z,3.85
2018-10-05T16:34:23.663Z,4.92
2018-10-05T16:36:50.897Z,6.47
2018-10-05T16:39:18.160Z,5.00
2018-10-05T16:41:45.414Z,5.87
2018-10-05T16:44:12.672Z,4.08
2018-10-05T16:46:40.080Z,5.40
2018-10-05T16:49:08.944Z,5.87
2018-10-05T16:51:36.187Z,7.78
2018-10-05T16:54:03.593Z,4.35
2018-10-05T16:56:30.847Z,9.10
2018-10-05T16:58:58.164Z,6.62
2018-10-05T17:01:25.734Z,5.05
2018-10-05T17:03:53.143Z,5.05
2018-10-05T17:06:20.376Z,4.30
2018-10-05T17:08:49.475Z,5.35
2018-10-05T17:11:16.736Z,5.50
2018-10-05T17:13:44.036Z,5.30
2018-10-05T17:16:11.328Z,5.40
2018-10-05T17:18:38.600Z,4.00
2018-10-05T17:21:05.913Z,4.08
2018-10-05T17:23:33.237Z,3.85
2018-10-05T17:26:00.477Z,8.10
2018-10-05T17:28:27.828Z,6.58
2018-10-05T17:30:55.091Z,4.58
2018-10-05T17:33:22.351Z,5.62
2018-10-05T17:35:49.645Z,7.12
2018-10-05T17:38:16.901Z,7.45
2018-10-05T17:40:44.154Z,9.30
2018-10-05T17:43:11.416Z,4.20
2018-10-05T17:45:38.668Z,7.72
2018-10-05T17:48:06.259Z,5.10
2018-10-05T17:50:33.599Z,3.50
2018-10-05T17:53:01.039Z,5.00
2018-10-05T17:55:28.430Z,4.90
2018-10-05T17:57:55.683Z,5.08
2018-10-05T18:00:23.207Z,4.00
2018-10-05T18:02:53.297Z,5.75
2018-10-05T18:05:20.628Z,6.30
2018-10-05T18:07:48.029Z,6.10
2018-10-05T18:10:15.329Z,4.58
2018-10-05T18:12:42.674Z,4.78
2018-10-05T18:15:10.003Z,5.90
2018-10-05T18:17:37.827Z,9.20
2018-10-05T18:20:05.471Z,6.50
2018-10-05T18:22:32.808Z,3.87
2018-10-05T18:25:00.132Z,4.47
2018-10-05T18:27:27.503Z,4.62
2018-10-05T18:29:54.934Z,6.17
2018-10-05T18:32:22.276Z,5.85
2018-10-05T18:34:49.588Z,4.47
2018-10-05T18:37:16.896Z,5.22
2018-10-05T18:39:44.268Z,5.92
2018-10-05T18:42:11.629Z,3.30
2018-10-05T18:44:38.932Z,7.33
2018-10-05T18:47:06.380Z,3.25
2018-10-05T18:49:33.700Z,5.90
2018-10-05T18:52:01.062Z,3.25
2018-10-05T18:54:28.375Z,6.78
2018-10-05T18:57:07.142Z,4.45
2018-10-05T18:59:34.497Z,5.15
2018-10-05T19:02:01.865Z,6.95
2018-10-05T19:04:29.358Z,5.15
2018-10-05T19:06:56.682Z,5.67
2018-10-05T19:09:23.979Z,6.67
2018-10-05T19:11:51.438Z,4.67
2018-10-05T19:14:18.848Z,5.25
2018-10-05T19:16:46.120Z,5.75
2018-10-05T19:19:13.433Z,6.33
2018-10-05T19:21:40.732Z,5.37
2018-10-05T19:24:09.058Z,10.55
2018-10-05T19:26:38.229Z,21.23
2018-10-05T19:29:09.672Z,21.20
2018-10-05T19:31:39.238Z,31.87
2018-10-05T19:34:09.680Z,20.55
2018-10-05T19:36:39.745Z,9.55
2018-10-05T19:39:11.101Z,8.25
2018-10-05T19:41:40.206Z,7.08
2018-10-05T19:44:09.607Z,6.30
2018-10-05T19:46:38.505Z,7.37
2018-10-05T19:49:07.051Z,6.05
2018-10-05T19:51:37.778Z,5.47
2018-10-05T19:54:06.480Z,5.40
2018-10-05T19:56:33.882Z,5.53
2018-10-05T19:59:01.252Z,10.32
2018-10-05T20:01:28.771Z,11.93
2018-10-05T20:03:56.154Z,8.77
2018-10-05T20:06:23.661Z,9.50
2018-10-05T20:08:51.271Z,7.77
2018-10-05T20:11:18.704Z,9.27
2018-10-05T20:13:46.098Z,9.25
2018-10-05T20:16:13.528Z,9.20
2018-10-05T20:18:40.964Z,8.53
2018-10-05T20:21:09.271Z,5.70
2018-10-05T20:23:37.541Z,6.70
2018-10-05T20:26:05.677Z,7.77
2018-10-05T20:28:33.345Z,10.28
2018-10-05T20:31:00.727Z,9.50
2018-10-05T20:33:28.235Z,8.23
2018-10-05T20:35:55.665Z,6.13
2018-10-05T20:38:23.113Z,6.47
2018-10-05T20:40:50.428Z,6.35
2018-10-05T20:43:17.783Z,7.67
2018-10-05T20:45:45.160Z,7.30
2018-10-05T20:48:12.543Z,7.17
2018-10-05T20:50:39.890Z,6.43
2018-10-05T20:53:07.198Z,7.73
2018-10-05T20:55:34.547Z,6.47
2018-10-05T20:58:02.869Z,8.00
2018-10-05T21:00:30.230Z,8.23
2018-10-05T21:02:57.580Z,5.67
2018-10-05T21:05:24.941Z,11.03
2018-10-05T21:07:52.296Z,6.77
2018-10-05T21:10:19.715Z,5.93
2018-10-05T21:12:47.036Z,7.40
2018-10-05T21:15:14.458Z,7.97
2018-10-05T21:17:41.760Z,7.00
2018-10-05T21:20:09.106Z,8.13
2018-10-05T21:22:36.424Z,7.37
2018-10-05T21:25:03.813Z,6.13
2018-10-05T21:27:31.270Z,7.47
2018-10-05T21:29:58.745Z,7.53
2018-10-05T21:32:26.105Z,7.37
2018-10-05T21:34:53.702Z,8.67
2018-10-05T21:37:21.203Z,6.67
2018-10-05T21:39:48.555Z,6.63
2018-10-05T21:42:15.982Z,6.47
2018-10-05T21:44:43.426Z,8.37
2018-10-05T21:47:10.889Z,6.30
2018-10-05T21:49:38.397Z,6.70
2018-10-05T21:52:06.075Z,7.77
2018-10-05T21:54:33.432Z,9.67
2018-10-05T21:57:01.231Z,9.50
2018-10-05T21:59:28.669Z,6.83
2018-10-05T22:01:56.009Z,8.33
2018-10-05T22:04:23.463Z,7.53
2018-10-05T22:06:50.788Z,8.37
2018-10-05T22:09:18.229Z,8.70
2018-10-05T22:11:45.650Z,11.47
2018-10-05T22:14:13.146Z,9.93
2018-10-05T22:16:40.630Z,7.67
2018-10-05T22:19:08.035Z,10.03
2018-10-05T22:21:35.382Z,8.33
2018-10-05T22:24:02.682Z,11.43
2018-10-05T22:26:29.999Z,9.60
2018-10-05T22:28:57.418Z,10.63
2018-10-05T22:31:24.690Z,9.27
2018-10-05T22:33:51.985Z,10.13
2018-10-05T22:36:19.328Z,9.07
2018-10-05T22:38:46.652Z,10.13
2018-10-05T22:41:13.977Z,11.33
2018-10-05T22:43:41.305Z,10.03
2018-10-05T22:46:08.616Z,8.40
2018-10-05T22:48:35.925Z,7.73
2018-10-05T22:51:03.378Z,7.30
2018-10-05T22:53:30.759Z,8.97
2018-10-05T22:55:58.063Z,7.10
2018-10-05T22:58:25.447Z,7.20
2018-10-05T23:00:52.793Z,8.90
2018-10-05T23:03:20.122Z,10.07
2018-10-05T23:05:47.439Z,8.10
2018-10-05T23:08:14.785Z,7.67
2018-10-05T23:10:42.095Z,8.87
2018-10-05T23:13:09.414Z,7.30
2018-10-05T23:15:36.803Z,12.30
2018-10-05T23:18:04.114Z,6.47
2018-10-05T23:20:31.529Z,10.90
2018-10-05T23:22:58.824Z,8.63
2018-10-05T23:25:26.130Z,6.40
2018-10-05T23:27:53.443Z,6.50
2018-10-05T23:30:20.758Z,10.20
2018-10-05T23:32:48.025Z,8.13
2018-10-05T23:35:15.556Z,6.43
2018-10-05T23:37:43.611Z,7.97
2018-10-05T23:40:10.971Z,8.13
2018-10-05T23:42:38.609Z,9.63
2018-10-05T23:45:05.944Z,7.97
2018-10-05T23:47:33.284Z,7.03
2018-10-05T23:50:00.605Z,8.67
2018-10-05T23:52:46.573Z,6.80
2018-10-05T23:55:13.923Z,7.57
2018-10-05T23:57:50.976Z,8.03
